createdAt,value
2018-09-10T00:00:44.589Z,3.80
2018-09-10T00:03:16.098Z,5.27
2018-09-10T00:05:47.666Z,4.67
2018-09-10T00:08:19.246Z,4.00
2018-09-10T00:10:50.737Z,5.17
2018-09-10T00:13:22.241Z,3.37
2018-09-10T00:15:53.754Z,4.93
2018-09-10T00:18:25.212Z,3.70
2018-09-10T00:20:56.668Z,3.73
2018-09-10T00:23:28.226Z,7.13
2018-09-10T00:26:00.539Z,4.07
2018-09-10T00:28:32.067Z,3.97
2018-09-10T00:31:03.532Z,3.40
2018-09-10T00:33:34.971Z,5.43
2018-09-10T00:36:06.521Z,3.93
2018-09-10T00:38:37.993Z,3.93
2018-09-10T00:41:09.457Z,3.00
2018-09-10T00:43:40.960Z,2.90
2018-09-10T00:46:12.512Z,2.77
2018-09-10T00:48:43.974Z,2.80
2018-09-10T00:51:15.536Z,3.00
2018-09-10T00:53:46.989Z,4.33
2018-09-10T00:56:18.520Z,3.30
2018-09-10T00:58:50.205Z,4.00
2018-09-10T01:01:21.682Z,3.00
2018-09-10T01:03:53.133Z,3.13
2018-09-10T01:06:24.625Z,4.67
2018-09-10T01:08:56.082Z,4.30
2018-09-10T01:11:27.649Z,2.03
2018-09-10T01:13:59.112Z,2.97
2018-09-10T01:16:30.612Z,2.53
2018-09-10T01:19:02.110Z,2.40
2018-09-10T01:21:33.578Z,2.50
2018-09-10T01:24:05.121Z,2.23
2018-09-10T01:26:36.578Z,2.57
2018-09-10T01:29:08.044Z,2.50
2018-09-10T01:31:39.505Z,4.17
2018-09-10T01:34:16.686Z,2.57
2018-09-10T01:36:48.141Z,4.67
2018-09-10T01:39:19.617Z,2.30
2018-09-10T01:41:51.057Z,2.30
2018-09-10T01:44:22.689Z,3.63
2018-09-10T01:46:54.145Z,3.53
2018-09-10T01:49:25.692Z,2.13
2018-09-10T01:51:57.144Z,1.93
2018-09-10T01:54:28.601Z,1.97
2018-09-10T01:57:00.061Z,1.80
2018-09-10T01:59:31.506Z,2.23
2018-09-10T02:02:03.043Z,1.97
2018-09-10T02:04:34.593Z,1.90
2018-09-10T02:07:06.079Z,1.97
2018-09-10T02:09:37.559Z,2.70
2018-09-10T02:12:14.848Z,2.37
2018-09-10T02:14:46.298Z,2.30
2018-09-10T02:17:17.772Z,2.40
2018-09-10T02:19:49.225Z,1.90
2018-09-10T02:22:21.112Z,2.17
2018-09-10T02:24:52.605Z,2.00
2018-09-10T02:27:24.130Z,1.80
2018-09-10T02:29:55.515Z,2.30
2018-09-10T02:32:26.971Z,1.80
2018-09-10T02:34:58.510Z,1.50
2018-09-10T02:37:29.978Z,1.70
2018-09-10T02:40:01.426Z,2.27
2018-09-10T02:42:32.890Z,2.23
2018-09-10T02:45:04.747Z,1.77
2018-09-10T02:47:36.204Z,2.60
2018-09-10T02:50:07.672Z,1.63
2018-09-10T02:52:39.140Z,2.00
2018-09-10T02:55:10.663Z,1.20
2018-09-10T02:57:42.109Z,1.90
2018-09-10T03:00:13.677Z,1.70
2018-09-10T03:02:45.069Z,3.10
2018-09-10T03:05:16.520Z,1.30
2018-09-10T03:07:47.997Z,2.17
2018-09-10T03:10:21.422Z,1.73
2018-09-10T03:12:53.806Z,1.30
2018-09-10T03:15:25.268Z,1.60
2018-09-10T03:17:56.811Z,1.93
2018-09-10T03:20:28.195Z,1.40
2018-09-10T03:22:59.661Z,1.47
2018-09-10T03:25:31.148Z,1.23
2018-09-10T03:28:02.616Z,2.50
2018-09-10T03:30:34.065Z,1.60
2018-09-10T03:33:05.650Z,2.07
2018-09-10T03:35:37.100Z,1.70
2018-09-10T03:38:08.591Z,1.50
2018-09-10T03:40:40.061Z,1.67
2018-09-10T03:43:11.516Z,1.60
2018-09-10T03:45:42.971Z,1.63
2018-09-10T03:48:14.456Z,1.10
2018-09-10T03:50:45.909Z,1.40
2018-09-10T03:53:17.391Z,1.73
2018-09-10T03:55:48.849Z,1.20
2018-09-10T03:58:20.330Z,0.93
2018-09-10T04:00:51.801Z,1.23
2018-09-10T04:03:23.425Z,1.43
2018-09-10T04:05:54.908Z,1.40
2018-09-10T04:08:26.349Z,1.20
2018-09-10T04:10:57.801Z,1.27
2018-09-10T04:13:29.432Z,0.90
2018-09-10T04:16:01.095Z,1.00
2018-09-10T04:18:32.616Z,1.30
2018-09-10T04:21:04.136Z,3.80
2018-09-10T04:23:35.608Z,1.10
2018-09-10T04:26:07.198Z,1.13
2018-09-10T04:28:38.561Z,1.13
2018-09-10T04:31:10.073Z,1.17
2018-09-10T04:33:41.650Z,0.93
2018-09-10T04:36:13.174Z,1.20
2018-09-10T04:38:44.638Z,1.20
2018-09-10T04:41:16.214Z,1.00
2018-09-10T04:43:47.735Z,1.10
2018-09-10T04:46:19.184Z,1.03
2018-09-10T04:48:50.664Z,1.53
2018-09-10T04:51:22.288Z,0.87
2018-09-10T04:53:53.765Z,0.83
2018-09-10T04:56:25.216Z,1.13
2018-09-10T04:58:56.667Z,1.00
2018-09-10T05:01:28.142Z,1.17
2018-09-10T05:03:59.612Z,1.23
2018-09-10T05:06:31.129Z,1.20
2018-09-10T05:09:03.443Z,1.50
2018-09-10T05:11:34.892Z,0.87
2018-09-10T05:14:06.358Z,3.30
2018-09-10T05:16:37.942Z,1.10
2018-09-10T05:19:09.423Z,0.83
2018-09-10T05:21:40.873Z,1.00
2018-09-10T05:24:12.327Z,0.87
2018-09-10T05:26:43.811Z,1.10
2018-09-10T05:29:15.331Z,1.20
2018-09-10T05:31:46.786Z,0.90
2018-09-10T05:34:18.259Z,1.20
2018-09-10T05:36:49.746Z,2.70
2018-09-10T05:39:21.260Z,0.83
2018-09-10T05:41:52.765Z,0.70
2018-09-10T05:44:24.230Z,0.80
2018-09-10T05:46:55.718Z,0.83
2018-09-10T05:49:27.172Z,1.00
2018-09-10T05:51:58.654Z,1.27
2018-09-10T05:54:30.109Z,1.10
2018-09-10T05:57:01.564Z,1.13
2018-09-10T05:59:33.014Z,1.00
2018-09-10T06:02:04.504Z,1.07
2018-09-10T06:04:36.020Z,0.73
2018-09-10T06:07:07.472Z,2.33
2018-09-10T06:09:38.983Z,0.80
2018-09-10T06:12:10.429Z,0.90
2018-09-10T06:14:41.946Z,0.80
2018-09-10T06:17:13.417Z,0.50
2018-09-10T06:19:44.893Z,0.77
2018-09-10T06:22:16.353Z,2.77
2018-09-10T06:24:47.837Z,0.63
2018-09-10T06:27:19.325Z,0.90
2018-09-10T06:29:50.794Z,0.80
2018-09-10T06:32:22.283Z,0.90
2018-09-10T06:34:53.745Z,0.83
2018-09-10T06:37:25.189Z,0.70
2018-09-10T06:39:56.650Z,1.43
2018-09-10T06:42:28.104Z,0.83
2018-09-10T06:44:59.612Z,0.90
2018-09-10T06:47:31.082Z,0.80
2018-09-10T06:50:02.574Z,0.60
2018-09-10T06:52:34.109Z,0.80
2018-09-10T06:55:05.771Z,0.73
2018-09-10T06:57:37.234Z,0.80
2018-09-10T07:00:08.731Z,1.00
2018-09-10T07:02:40.176Z,0.63
2018-09-10T07:05:11.637Z,0.90
2018-09-10T07:07:43.182Z,0.80
2018-09-10T07:10:14.720Z,0.70
2018-09-10T07:12:46.248Z,0.60
2018-09-10T07:15:17.657Z,0.70
2018-09-10T07:17:49.263Z,0.70
2018-09-10T07:20:20.758Z,1.00
2018-09-10T07:22:52.206Z,0.77
2018-09-10T07:25:23.669Z,1.70
2018-09-10T07:27:55.205Z,0.73
2018-09-10T07:30:26.660Z,0.83
2018-09-10T07:32:58.113Z,1.47
2018-09-10T07:35:29.575Z,1.07
2018-09-10T07:38:01.073Z,1.27
2018-09-10T07:40:32.596Z,1.00
2018-09-10T07:43:04.102Z,0.90
2018-09-10T07:45:35.720Z,0.90
2018-09-10T07:48:07.250Z,0.60
2018-09-10T07:50:38.794Z,0.90
2018-09-10T07:53:10.282Z,0.87
2018-09-10T07:55:41.741Z,0.70
2018-09-10T07:58:13.230Z,0.80
2018-09-10T08:00:44.759Z,0.97
2018-09-10T08:03:16.156Z,0.87
2018-09-10T08:05:47.610Z,0.70
2018-09-10T08:08:19.148Z,0.70
2018-09-10T08:10:50.598Z,3.13
2018-09-10T08:13:22.070Z,0.90
2018-09-10T08:15:53.521Z,1.13
2018-09-10T08:18:24.976Z,6.80
2018-09-10T08:20:56.496Z,2.13
2018-09-10T08:23:28.070Z,1.20
2018-09-10T08:25:59.582Z,1.43
2018-09-10T08:28:31.080Z,1.83
2018-09-10T08:31:02.614Z,1.83
2018-09-10T08:33:34.125Z,1.83
2018-09-10T08:36:05.624Z,4.23
2018-09-10T08:38:37.177Z,5.90
2018-09-10T08:41:08.634Z,5.70
2018-09-10T08:43:40.082Z,3.80
2018-09-10T08:46:11.551Z,5.40
2018-09-10T08:48:43.515Z,6.90
2018-09-10T08:51:15.047Z,14.30
2018-09-10T08:53:46.524Z,19.13
2018-09-10T08:56:18.248Z,12.00
2018-09-10T08:58:49.517Z,11.97
2018-09-10T09:01:20.990Z,13.30
2018-09-10T09:03:52.466Z,17.23
2018-09-10T09:06:23.988Z,10.43
2018-09-10T09:08:55.527Z,14.20
2018-09-10T09:11:27.065Z,13.47
2018-09-10T09:13:58.533Z,9.87
2018-09-10T09:16:30.099Z,8.87
2018-09-10T09:19:01.616Z,7.20
2018-09-10T09:21:33.162Z,9.33
2018-09-10T09:24:04.685Z,6.97
2018-09-10T09:26:36.171Z,7.47
2018-09-10T09:29:07.728Z,15.07
2018-09-10T09:31:39.289Z,12.23
2018-09-10T09:34:10.861Z,8.30
2018-09-10T09:36:48.015Z,7.37
2018-09-10T09:39:25.112Z,7.53
2018-09-10T09:42:02.241Z,9.57
2018-09-10T09:44:39.591Z,6.50
2018-09-10T09:47:11.117Z,6.63
2018-09-10T09:49:42.602Z,7.40
2018-09-10T09:52:14.121Z,11.00
2018-09-10T09:54:45.934Z,7.07
2018-09-10T09:57:17.418Z,7.33
2018-09-10T09:59:49.013Z,7.60
2018-09-10T10:02:24.070Z,8.73
2018-09-10T10:04:55.835Z,7.90
2018-09-10T10:07:27.350Z,6.30
2018-09-10T10:09:58.915Z,5.67
2018-09-10T10:12:30.411Z,9.97
2018-09-10T10:15:01.912Z,5.60
2018-09-10T10:17:33.400Z,10.67
2018-09-10T10:20:04.908Z,8.57
2018-09-10T10:22:36.420Z,7.00
2018-09-10T10:25:07.917Z,5.20
2018-09-10T10:27:39.376Z,6.27
2018-09-10T10:30:10.856Z,9.43
2018-09-10T10:32:42.587Z,4.17
2018-09-10T10:35:14.065Z,4.50
2018-09-10T10:37:45.535Z,5.70
2018-09-10T10:40:17.021Z,5.33
2018-09-10T10:42:48.513Z,3.83
2018-09-10T10:45:20.058Z,6.87
2018-09-10T10:47:51.521Z,4.20
2018-09-10T10:50:23.089Z,3.87
2018-09-10T10:52:54.549Z,5.80
2018-09-10T10:55:26.019Z,6.60
2018-09-10T10:57:57.469Z,6.13
2018-09-10T11:00:28.963Z,4.33
2018-09-10T11:03:00.489Z,5.50
2018-09-10T11:05:32.063Z,4.17
2018-09-10T11:08:03.558Z,3.83
2018-09-10T11:10:35.039Z,5.03
2018-09-10T11:13:06.605Z,7.53
2018-09-10T11:15:38.080Z,3.80
2018-09-10T11:18:09.532Z,3.10
2018-09-10T11:20:41.013Z,3.77
2018-09-10T11:23:12.498Z,3.07
2018-09-10T11:25:44.061Z,2.77
2018-09-10T11:28:15.542Z,4.00
2018-09-10T11:30:47.017Z,2.63
2018-09-10T11:33:18.480Z,2.27
2018-09-10T11:35:49.982Z,2.67
2018-09-10T11:38:21.486Z,3.20
2018-09-10T11:40:52.967Z,2.50
2018-09-10T11:43:24.478Z,2.70
2018-09-10T11:45:56.016Z,2.80
2018-09-10T11:48:27.441Z,1.87
2018-09-10T11:50:58.908Z,1.93
2018-09-10T11:53:30.361Z,2.87
2018-09-10T11:56:01.863Z,3.00
2018-09-10T11:58:33.335Z,2.27
2018-09-10T12:01:04.817Z,1.73
2018-09-10T12:03:36.325Z,3.03
2018-09-10T12:06:07.829Z,1.30
2018-09-10T12:08:39.349Z,1.90
2018-09-10T12:11:10.877Z,1.20
2018-09-10T12:13:42.427Z,1.30
2018-09-10T12:16:13.909Z,1.50
2018-09-10T12:18:45.383Z,1.50
2018-09-10T12:21:16.844Z,1.57
2018-09-10T12:23:48.441Z,1.20
2018-09-10T12:26:19.913Z,1.23
2018-09-10T12:28:51.482Z,1.20
2018-09-10T12:31:23.068Z,0.80
2018-09-10T12:33:54.628Z,1.57
2018-09-10T12:36:26.173Z,0.67
2018-09-10T12:38:57.807Z,0.97
2018-09-10T12:41:29.380Z,0.90
2018-09-10T12:44:00.918Z,0.87
2018-09-10T12:46:32.566Z,0.90
2018-09-10T12:49:04.041Z,1.00
2018-09-10T12:51:35.633Z,0.70
2018-09-10T12:54:07.256Z,2.07
2018-09-10T12:56:38.907Z,1.97
2018-09-10T12:59:10.483Z,1.07
2018-09-10T13:01:42.116Z,0.70
2018-09-10T13:04:13.674Z,1.10
2018-09-10T13:06:45.284Z,3.33
2018-09-10T13:09:17.153Z,1.10
2018-09-10T13:11:48.797Z,0.70
2018-09-10T13:14:20.354Z,1.07
2018-09-10T13:16:51.948Z,1.10
2018-09-10T13:19:23.507Z,1.03
2018-09-10T13:21:55.116Z,0.70
2018-09-10T13:24:26.715Z,1.10
2018-09-10T13:26:58.342Z,0.53
2018-09-10T13:29:29.930Z,0.83
2018-09-10T13:32:01.544Z,0.60
2018-09-10T13:34:33.181Z,0.57
2018-09-10T13:37:04.760Z,0.60
2018-09-10T13:39:36.343Z,0.60
2018-09-10T13:42:07.952Z,0.60
2018-09-10T13:44:39.557Z,0.77
2018-09-10T13:47:11.154Z,0.60
2018-09-10T13:49:42.876Z,0.80
2018-09-10T13:52:14.419Z,1.33
2018-09-10T13:54:46.017Z,0.50
2018-09-10T13:57:17.578Z,1.03
2018-09-10T13:59:49.210Z,4.60
2018-09-10T14:02:20.695Z,3.30
2018-09-10T14:04:52.286Z,5.23
2018-09-10T14:07:23.826Z,6.20
2018-09-10T14:09:55.448Z,5.07
2018-09-10T14:12:27.042Z,6.07
2018-09-10T14:14:58.704Z,3.33
2018-09-10T14:17:30.329Z,2.67
2018-09-10T14:20:01.951Z,3.10
2018-09-10T14:22:33.540Z,3.57
2018-09-10T14:25:05.177Z,3.70
2018-09-10T14:27:36.774Z,3.40
2018-09-10T14:30:08.395Z,5.33
2018-09-10T14:32:39.993Z,3.90
2018-09-10T14:35:11.595Z,4.83
2018-09-10T14:37:43.173Z,3.17
2018-09-10T14:40:14.738Z,3.33
2018-09-10T14:42:46.347Z,3.03
2018-09-10T14:45:17.904Z,3.33
2018-09-10T14:47:49.472Z,4.17
2018-09-10T14:50:21.065Z,3.80
2018-09-10T14:52:52.681Z,3.10
2018-09-10T14:55:24.281Z,3.20
2018-09-10T14:57:55.874Z,4.20
2018-09-10T15:00:27.854Z,3.00
2018-09-10T15:02:59.434Z,3.37
2018-09-10T15:05:31.072Z,3.33
2018-09-10T15:08:02.708Z,3.40
2018-09-10T15:10:34.289Z,3.23
2018-09-10T15:13:05.886Z,2.57
2018-09-10T15:15:37.481Z,3.20
2018-09-10T15:18:09.053Z,3.27
2018-09-10T15:20:40.595Z,2.97
2018-09-10T15:23:12.315Z,3.00
2018-09-10T15:25:43.931Z,2.80
2018-09-10T15:28:15.445Z,2.60
2018-09-10T15:30:47.042Z,2.70
2018-09-10T15:33:18.537Z,2.67
2018-09-10T15:35:50.121Z,2.80
2018-09-10T15:38:21.882Z,3.63
2018-09-10T15:40:53.457Z,2.40
2018-09-10T15:43:25.010Z,2.33
2018-09-10T15:45:56.540Z,2.73
2018-09-10T15:48:28.110Z,2.37
2018-09-10T15:50:59.725Z,2.20
2018-09-10T15:53:31.296Z,2.33
2018-09-10T15:56:02.828Z,2.43
2018-09-10T15:58:34.318Z,2.40
2018-09-10T16:01:05.765Z,2.20
2018-09-10T16:03:37.248Z,2.97
2018-09-10T16:06:08.697Z,1.77
2018-09-10T16:08:40.156Z,2.80
2018-09-10T16:11:11.605Z,2.70
2018-09-10T16:13:43.040Z,2.37
2018-09-10T16:16:14.522Z,2.23
2018-09-10T16:18:45.986Z,2.40
2018-09-10T16:21:17.585Z,2.27
2018-09-10T16:23:49.032Z,2.17
2018-09-10T16:26:20.512Z,2.53
2018-09-10T16:28:51.975Z,2.50
2018-09-10T16:31:23.419Z,2.50
2018-09-10T16:33:54.976Z,2.37
2018-09-10T16:36:26.406Z,2.63
2018-09-10T16:38:57.886Z,2.37
2018-09-10T16:41:29.420Z,2.63
2018-09-10T16:44:00.883Z,3.40
2018-09-10T16:46:32.589Z,2.27
2018-09-10T16:49:04.235Z,2.47
2018-09-10T16:51:35.737Z,2.10
2018-09-10T16:54:07.273Z,2.10
2018-09-10T16:56:38.768Z,2.20
2018-09-10T16:59:10.313Z,2.23
2018-09-10T17:01:41.861Z,2.30
2018-09-10T17:04:13.317Z,1.90
2018-09-10T17:06:44.758Z,3.33
2018-09-10T17:09:16.225Z,2.30
2018-09-10T17:11:47.769Z,2.03
2018-09-10T17:14:19.210Z,1.70
2018-09-10T17:16:50.652Z,2.60
2018-09-10T17:19:22.109Z,2.27
2018-09-10T17:21:53.556Z,1.80
2018-09-10T17:24:25.053Z,1.70
2018-09-10T17:26:56.577Z,1.70
2018-09-10T17:29:28.143Z,1.80
2018-09-10T17:31:59.626Z,2.23
2018-09-10T17:34:31.137Z,2.10
2018-09-10T17:37:02.726Z,1.87
2018-09-10T17:39:34.262Z,1.40
2018-09-10T17:42:05.777Z,1.67
2018-09-10T17:44:37.242Z,1.50
2018-09-10T17:47:08.935Z,1.60
2018-09-10T17:49:40.333Z,2.17
2018-09-10T17:52:11.805Z,1.80
2018-09-10T17:54:43.336Z,1.77
2018-09-10T17:57:14.802Z,1.43
2018-09-10T17:59:46.252Z,1.60
2018-09-10T18:02:17.728Z,2.23
2018-09-10T18:04:49.288Z,1.47
2018-09-10T18:07:20.852Z,1.47
2018-09-10T18:09:52.390Z,1.90
2018-09-10T18:12:23.956Z,2.17
2018-09-10T18:14:55.599Z,1.60
2018-09-10T18:17:27.191Z,1.40
2018-09-10T18:19:58.741Z,2.60
2018-09-10T18:22:30.247Z,1.37
2018-09-10T18:25:01.933Z,1.17
2018-09-10T18:27:33.413Z,1.23
2018-09-10T18:30:05.130Z,1.50
2018-09-10T18:32:36.707Z,1.60
2018-09-10T18:35:08.329Z,1.10
2018-09-10T18:37:40.146Z,1.40
2018-09-10T18:40:11.703Z,1.90
2018-09-10T18:42:43.243Z,1.30
2018-09-10T18:45:14.801Z,1.23
2018-09-10T18:47:46.334Z,1.00
2018-09-10T18:50:17.888Z,1.20
2018-09-10T18:52:49.423Z,1.73
2018-09-10T18:55:21.016Z,0.80
2018-09-10T18:57:52.781Z,1.93
2018-09-10T19:00:24.340Z,1.43
2018-09-10T19:02:55.936Z,1.20
2018-09-10T19:05:27.498Z,1.50
2018-09-10T19:07:59.640Z,0.87
2018-09-10T19:10:31.220Z,1.07
2018-09-10T19:13:02.796Z,1.07
2018-09-10T19:15:34.419Z,1.17
2018-09-10T19:18:06.013Z,1.77
2018-09-10T19:20:37.575Z,1.50
2018-09-10T19:23:09.133Z,1.13
2018-09-10T19:25:40.703Z,1.20
2018-09-10T19:28:12.281Z,1.20
2018-09-10T19:30:43.785Z,1.63
2018-09-10T19:33:15.318Z,1.00
2018-09-10T19:35:46.878Z,1.40
2018-09-10T19:38:18.445Z,0.73
2018-09-10T19:40:49.978Z,1.00
2018-09-10T19:43:21.548Z,1.67
2018-09-10T19:45:53.084Z,1.00
2018-09-10T19:48:24.604Z,1.30
2018-09-10T19:50:56.240Z,0.70
2018-09-10T19:53:27.768Z,0.80
2018-09-10T19:55:59.273Z,1.40
2018-09-10T19:58:30.858Z,0.70
2018-09-10T20:01:02.412Z,1.00
2018-09-10T20:03:33.957Z,0.97
2018-09-10T20:06:05.519Z,0.60
2018-09-10T20:08:37.066Z,3.83
2018-09-10T20:11:09.026Z,0.63
2018-09-10T20:13:40.649Z,1.00
2018-09-10T20:16:12.220Z,0.80
2018-09-10T20:18:43.841Z,1.07
2018-09-10T20:21:15.452Z,1.70
2018-09-10T20:23:47.026Z,0.67
2018-09-10T20:26:18.902Z,0.83
2018-09-10T20:28:51.111Z,0.70
2018-09-10T20:31:22.899Z,0.60
2018-09-10T20:34:00.356Z,0.67
2018-09-10T20:36:32.144Z,3.03
2018-09-10T20:39:05.556Z,0.87
2018-09-10T20:41:37.171Z,1.50
2018-09-10T20:44:09.185Z,0.60
2018-09-10T20:46:40.773Z,0.57
2018-09-10T20:49:12.302Z,0.87
2018-09-10T20:51:43.784Z,1.23
2018-09-10T20:54:15.282Z,0.90
2018-09-10T20:56:46.782Z,0.57
2018-09-10T20:59:18.356Z,1.00
2018-09-10T21:01:50.432Z,0.70
2018-09-10T21:04:22.116Z,0.93
2018-09-10T21:06:53.809Z,0.70
2018-09-10T21:09:25.400Z,0.70
2018-09-10T21:11:56.954Z,0.50
2018-09-10T21:14:28.474Z,0.70
2018-09-10T21:17:00.044Z,0.40
2018-09-10T21:19:31.581Z,0.73
2018-09-10T21:22:03.168Z,0.60
2018-09-10T21:24:34.749Z,0.40
2018-09-10T21:27:06.342Z,2.00
2018-09-10T21:29:37.842Z,0.60
2018-09-10T21:32:09.300Z,1.27
2018-09-10T21:34:40.833Z,1.50
2018-09-10T21:37:12.465Z,1.07
2018-09-10T21:39:44.020Z,1.13
2018-09-10T21:42:15.574Z,1.13
2018-09-10T21:44:47.156Z,2.60
2018-09-10T21:47:18.628Z,1.90
2018-09-10T21:49:50.136Z,2.60
2018-09-10T21:52:21.688Z,16.93
2018-09-10T21:54:53.299Z,19.87
2018-09-10T21:57:24.855Z,9.93
2018-09-10T21:59:56.504Z,7.17
2018-09-10T22:02:28.082Z,6.93
2018-09-10T22:04:59.628Z,6.60
2018-09-10T22:07:31.180Z,7.40
2018-09-10T22:10:02.816Z,6.57
2018-09-10T22:12:34.343Z,6.37
2018-09-10T22:15:05.970Z,3.30
2018-09-10T22:17:37.528Z,4.40
2018-09-10T22:20:09.082Z,7.13
2018-09-10T22:23:07.072Z,6.40
2018-09-10T22:25:38.633Z,8.97
2018-09-10T22:28:10.201Z,8.53
2018-09-10T22:30:41.858Z,4.43
2018-09-10T22:33:14.260Z,4.20
2018-09-10T22:35:45.829Z,5.77
2018-09-10T22:38:17.431Z,3.70
2018-09-10T22:40:48.985Z,5.63
2018-09-10T22:43:20.547Z,3.43
2018-09-10T22:45:52.231Z,2.97
2018-09-10T22:48:23.861Z,2.67
2018-09-10T22:50:55.378Z,2.80
2018-09-10T22:53:26.877Z,2.57
2018-09-10T22:55:58.336Z,3.87
2018-09-10T22:58:29.922Z,3.07
2018-09-10T23:01:01.401Z,4.60
2018-09-10T23:03:32.857Z,5.10
2018-09-10T23:06:04.345Z,5.23
2018-09-10T23:08:35.892Z,4.67
2018-09-10T23:11:07.378Z,4.60
2018-09-10T23:13:38.848Z,5.20
2018-09-10T23:16:10.361Z,6.40
2018-09-10T23:18:42.053Z,6.13
2018-09-10T23:21:13.562Z,5.80
2018-09-10T23:23:45.009Z,6.90
2018-09-10T23:26:16.467Z,6.10
2018-09-10T23:28:47.929Z,6.80
2018-09-10T23:31:19.413Z,7.47
2018-09-10T23:33:50.861Z,7.37
2018-09-10T23:36:22.391Z,8.50
2018-09-10T23:38:53.837Z,8.40
2018-09-10T23:41:25.277Z,10.53
2018-09-10T23:43:56.837Z,11.10
2018-09-10T23:46:28.307Z,10.90
2018-09-10T23:48:59.829Z,9.23
2018-09-10T23:51:31.430Z,10.30
2018-09-10T23:54:02.896Z,10.47
2018-09-10T23:56:34.396Z,8.80
2018-09-10T23:59:05.975Z,8.23
